Gardiner, NY

6:48 PM EDT on July 31, 2015 (GMT -0400)
APRSWXNET | | Change Station
CLOSE
Current Station
Personal Weather Station
Location: Plattekill, NY
Elevation: 600 ft
Nearby Weather Stations

Elev 600 ft 41.61 °N, 74.09 °W | Updated 17 minutes ago

Clear
Clear
83 °F
Feels Like 82 °F
N
2
Wind Variable Wind from West
Gusts 5.0 mph

Today
High -- | Low -- °F
--% Chance of Precip.
Yesterday
High -- | Low -- °F
Precip. -- in
5:49 AM 8:15 PM
Full, 100% visible
Pressure 29.83 in
Visibility 20.0 miles
Clouds Few 6000 ft
Heat Index 82 °F
Dew Point 55 °F
Humidity 39%
Rainfall in
Snow Depth Not available.
UV 2 out of 12
Pollen 5.60 out of 12
Air Quality Not available.
Flu Activity Not available.
METAR KSWF 312145Z 29016KT 20SM FEW060 30/12 A2983

More Conditions Fewer Conditions

Pressure 29.83 in
Visibility 20.0 miles
Clouds Few 6000 ft
Heat Index 82 °F
Dew Point 55 °F
Humidity 39%
Rainfall in
Snow Depth Not available.
UV 2 out of 12
Pollen 5.60 out of 12
Air Quality Not available.
Flu Activity Not available.
METAR KSWF 312145Z 29016KT 20SM FEW060 30/12 A2983

More Conditions Fewer Conditions

10-Day Weather Forecast

×

Almanac

Astronomy

Jul. 31, 2015 Rise Set
Actual Time
Civil Twilight
Nautical Twilight
Astronomical Twilight
Moon
Length of Visible Light
Length of Day
Tomorrow will be .
, % of the Moon is Illuminated

Today's Extremes

State Highs State Lows

Community

WunderPhotos

Upload Photos

1,842,764 photos uploaded!

WunderBlogs® & News

Nearby

Air Quality

  Air Quality AQ Index Pollutant
Not available.

Snow Depth

Station Depth Elevation

Earthquake Activity

City Distance Mag. Time & Date
Minimum magnitude displayed is 2.5.

Coastal Water Temperatures

Place Temperature

Stations

Nearby Weather Stations

Station Location Temp. Windchill Dew Point Humidity Wind Precip. Elev Updated Type